sensor_id;sensor_type;location;lat;lon;timestamp;temperature;humidity
8099;DHT22;4092;47.876;9.372;2023-04-03T00:00:35;2.40;99.90
8099;DHT22;4092;47.876;9.372;2023-04-03T00:03:02;2.40;99.90
8099;DHT22;4092;47.876;9.372;2023-04-03T00:05:29;2.40;99.90
8099;DHT22;4092;47.876;9.372;2023-04-03T00:07:55;2.40;99.90
8099;DHT22;4092;47.876;9.372;2023-04-03T00:10:24;2.40;99.90
8099;DHT22;4092;47.876;9.372;2023-04-03T00:12:51;2.40;99.90
8099;DHT22;4092;47.876;9.372;2023-04-03T00:15:18;2.40;99.90
8099;DHT22;4092;47.876;9.372;2023-04-03T00:17:45;2.40;99.90
8099;DHT22;4092;47.876;9.372;2023-04-03T00:20:12;2.30;99.90
8099;DHT22;4092;47.876;9.372;2023-04-03T00:22:39;2.40;99.90
8099;DHT22;4092;47.876;9.372;2023-04-03T00:25:07;2.40;99.90
8099;DHT22;4092;47.876;9.372;2023-04-03T00:27:38;2.50;99.90
8099;DHT22;4092;47.876;9.372;2023-04-03T00:30:06;2.50;99.90
8099;DHT22;4092;47.876;9.372;2023-04-03T00:32:34;2.40;99.90
8099;DHT22;4092;47.876;9.372;2023-04-03T00:35:01;2.40;99.90
8099;DHT22;4092;47.876;9.372;2023-04-03T00:37:28;2.40;99.90
8099;DHT22;4092;47.876;9.372;2023-04-03T00:39:56;2.40;99.90
8099;DHT22;4092;47.876;9.372;2023-04-03T00:42:23;2.50;99.90
8099;DHT22;4092;47.876;9.372;2023-04-03T00:45:28;2.40;99.90
8099;DHT22;4092;47.876;9.372;2023-04-03T00:47:57;2.50;99.90
8099;DHT22;4092;47.876;9.372;2023-04-03T00:50:27;2.40;99.90
8099;DHT22;4092;47.876;9.372;2023-04-03T00:52:54;2.40;99.90
8099;DHT22;4092;47.876;9.372;2023-04-03T00:55:22;2.40;99.90
8099;DHT22;4092;47.876;9.372;2023-04-03T00:57:50;2.40;99.90
8099;DHT22;4092;47.876;9.372;2023-04-03T01:00:20;2.40;99.90
8099;DHT22;4092;47.876;9.372;2023-04-03T01:02:49;2.40;99.90
8099;DHT22;4092;47.876;9.372;2023-04-03T01:05:17;2.40;99.90
8099;DHT22;4092;47.876;9.372;2023-04-03T01:07:46;2.40;99.90
8099;DHT22;4092;47.876;9.372;2023-04-03T01:10:15;2.30;99.90
8099;DHT22;4092;47.876;9.372;2023-04-03T01:12:47;2.40;99.90
8099;DHT22;4092;47.876;9.372;2023-04-03T01:15:16;2.40;99.90
8099;DHT22;4092;47.876;9.372;2023-04-03T01:17:45;2.40;99.90
8099;DHT22;4092;47.876;9.372;2023-04-03T01:23:32;2.30;99.90
8099;DHT22;4092;47.876;9.372;2023-04-03T01:26:00;2.20;99.90
8099;DHT22;4092;47.876;9.372;2023-04-03T01:28:30;2.20;99.90
8099;DHT22;4092;47.876;9.372;2023-04-03T01:31:02;2.10;99.90
8099;DHT22;4092;47.876;9.372;2023-04-03T01:33:33;2.10;99.90
8099;DHT22;4092;47.876;9.372;2023-04-03T01:36:00;2.20;99.90
8099;DHT22;4092;47.876;9.372;2023-04-03T01:38:27;2.10;99.90
8099;DHT22;4092;47.876;9.372;2023-04-03T01:40:54;2.10;99.90
8099;DHT22;4092;47.876;9.372;2023-04-03T01:43:21;2.00;99.90
8099;DHT22;4092;47.876;9.372;2023-04-03T01:45:48;1.90;99.90
8099;DHT22;4092;47.876;9.372;2023-04-03T01:48:16;1.90;99.90
8099;DHT22;4092;47.876;9.372;2023-04-03T01:50:44;1.80;99.90
8099;DHT22;4092;47.876;9.372;2023-04-03T01:53:12;1.80;99.90
8099;DHT22;4092;47.876;9.372;2023-04-03T01:55:39;1.80;99.90
8099;DHT22;4092;47.876;9.372;2023-04-03T01:58:06;1.70;99.90
8099;DHT22;4092;47.876;9.372;2023-04-03T02:00:33;1.60;99.90
8099;DHT22;4092;47.876;9.372;2023-04-03T02:03:00;1.60;99.90
8099;DHT22;4092;47.876;9.372;2023-04-03T02:05:27;1.60;99.90
8099;DHT22;4092;47.876;9.372;2023-04-03T02:07:55;1.70;99.90
8099;DHT22;4092;47.876;9.372;2023-04-03T02:10:22;1.70;99.90
8099;DHT22;4092;47.876;9.372;2023-04-03T02:12:49;1.70;99.90
8099;DHT22;4092;47.876;9.372;2023-04-03T02:15:16;1.60;99.90
8099;DHT22;4092;47.876;9.372;2023-04-03T02:17:43;1.60;99.90
8099;DHT22;4092;47.876;9.372;2023-04-03T02:20:11;1.70;99.90
8099;DHT22;4092;47.876;9.372;2023-04-03T02:22:38;1.70;99.90
8099;DHT22;4092;47.876;9.372;2023-04-03T02:25:07;1.60;99.90
8099;DHT22;4092;47.876;9.372;2023-04-03T02:27:35;1.60;99.90
8099;DHT22;4092;47.876;9.372;2023-04-03T02:30:02;1.70;99.90
8099;DHT22;4092;47.876;9.372;2023-04-03T02:32:29;1.60;99.90
8099;DHT22;4092;47.876;9.372;2023-04-03T02:34:56;1.50;99.90
8099;DHT22;4092;47.876;9.372;2023-04-03T02:37:23;1.50;99.90
8099;DHT22;4092;47.876;9.372;2023-04-03T02:39:51;1.50;99.90
8099;DHT22;4092;47.876;9.372;2023-04-03T02:42:19;1.40;99.90
8099;DHT22;4092;47.876;9.372;2023-04-03T02:44:46;1.40;99.90
8099;DHT22;4092;47.876;9.372;2023-04-03T02:47:13;1.50;99.90
8099;DHT22;4092;47.876;9.372;2023-04-03T02:49:40;1.50;99.90
8099;DHT22;4092;47.876;9.372;2023-04-03T02:52:09;1.50;99.90
8099;DHT22;4092;47.876;9.372;2023-04-03T02:54:36;1.40;99.90
8099;DHT22;4092;47.876;9.372;2023-04-03T02:57:03;1.40;99.90
8099;DHT22;4092;47.876;9.372;2023-04-03T02:59:31;1.40;99.90
8099;DHT22;4092;47.876;9.372;2023-04-03T03:01:58;1.40;99.90
8099;DHT22;4092;47.876;9.372;2023-04-03T03:04:25;1.30;99.90
8099;DHT22;4092;47.876;9.372;2023-04-03T03:06:52;1.30;99.90
8099;DHT22;4092;47.876;9.372;2023-04-03T03:09:20;1.20;99.90
8099;DHT22;4092;47.876;9.372;2023-04-03T03:11:47;1.20;99.90
8099;DHT22;4092;47.876;9.372;2023-04-03T03:14:14;1.20;99.90
8099;DHT22;4092;47.876;9.372;2023-04-03T03:16:42;1.10;99.90
8099;DHT22;4092;47.876;9.372;2023-04-03T03:19:10;1.00;99.90
8099;DHT22;4092;47.876;9.372;2023-04-03T03:21:37;1.10;99.90
8099;DHT22;4092;47.876;9.372;2023-04-03T03:24:04;1.00;99.90
8099;DHT22;4092;47.876;9.372;2023-04-03T03:26:31;1.00;99.90
8099;DHT22;4092;47.876;9.372;2023-04-03T03:28:58;1.00;99.90
8099;DHT22;4092;47.876;9.372;2023-04-03T03:31:26;1.00;99.90
8099;DHT22;4092;47.876;9.372;2023-04-03T03:33:54;1.00;99.90
8099;DHT22;4092;47.876;9.372;2023-04-03T03:36:21;1.00;99.90
8099;DHT22;4092;47.876;9.372;2023-04-03T03:38:48;1.00;99.90
8099;DHT22;4092;47.876;9.372;2023-04-03T03:41:15;1.00;99.90
8099;DHT22;4092;47.876;9.372;2023-04-03T03:43:42;1.00;99.90
8099;DHT22;4092;47.876;9.372;2023-04-03T03:46:09;1.00;99.90
8099;DHT22;4092;47.876;9.372;2023-04-03T03:48:36;1.00;99.90
8099;DHT22;4092;47.876;9.372;2023-04-03T03:51:05;1.00;99.90
8099;DHT22;4092;47.876;9.372;2023-04-03T03:53:32;1.10;99.90
8099;DHT22;4092;47.876;9.372;2023-04-03T03:55:59;1.00;99.90
8099;DHT22;4092;47.876;9.372;2023-04-03T03:58:26;1.10;99.90
8099;DHT22;4092;47.876;9.372;2023-04-03T04:00:53;1.00;99.90
8099;DHT22;4092;47.876;9.372;2023-04-03T04:03:21;1.10;99.90
8099;DHT22;4092;47.876;9.372;2023-04-03T04:05:48;1.10;99.90
8099;DHT22;4092;47.876;9.372;2023-04-03T04:08:16;1.00;99.90
8099;DHT22;4092;47.876;9.372;2023-04-03T04:10:43;1.10;99.90
8099;DHT22;4092;47.876;9.372;2023-04-03T04:13:10;1.10;99.90
8099;DHT22;4092;47.876;9.372;2023-04-03T04:15:37;1.00;99.90
8099;DHT22;4092;47.876;9.372;2023-04-03T04:18:04;1.10;99.90
8099;DHT22;4092;47.876;9.372;2023-04-03T04:20:31;1.00;99.90
8099;DHT22;4092;47.876;9.372;2023-04-03T04:22:58;1.10;99.90
8099;DHT22;4092;47.876;9.372;2023-04-03T04:25:27;1.00;99.90
8099;DHT22;4092;47.876;9.372;2023-04-03T04:27:53;1.00;99.90
8099;DHT22;4092;47.876;9.372;2023-04-03T04:30:21;1.00;99.90
8099;DHT22;4092;47.876;9.372;2023-04-03T04:32:47;1.10;99.90
8099;DHT22;4092;47.876;9.372;2023-04-03T04:35:15;1.10;99.90
8099;DHT22;4092;47.876;9.372;2023-04-03T04:37:42;1.10;99.90
8099;DHT22;4092;47.876;9.372;2023-04-03T04:40:09;1.10;99.90
8099;DHT22;4092;47.876;9.372;2023-04-03T04:42:38;1.10;99.90
8099;DHT22;4092;47.876;9.372;2023-04-03T04:45:06;1.00;99.90
8099;DHT22;4092;47.876;9.372;2023-04-03T04:47:33;1.00;99.90
8099;DHT22;4092;47.876;9.372;2023-04-03T04:50:00;0.90;99.90
8099;DHT22;4092;47.876;9.372;2023-04-03T04:52:27;1.00;99.90
8099;DHT22;4092;47.876;9.372;2023-04-03T04:54:54;1.10;99.90
8099;DHT22;4092;47.876;9.372;2023-04-03T04:57:21;1.00;99.90
8099;DHT22;4092;47.876;9.372;2023-04-03T04:59:49;1.00;99.90
8099;DHT22;4092;47.876;9.372;2023-04-03T05:02:16;1.10;99.90
8099;DHT22;4092;47.876;9.372;2023-04-03T05:04:43;1.20;99.90
8099;DHT22;4092;47.876;9.372;2023-04-03T05:07:10;1.20;99.90
8099;DHT22;4092;47.876;9.372;2023-04-03T05:09:38;1.20;99.90
8099;DHT22;4092;47.876;9.372;2023-04-03T05:12:07;1.20;99.90
8099;DHT22;4092;47.876;9.372;2023-04-03T05:14:34;1.20;99.90
8099;DHT22;4092;47.876;9.372;2023-04-03T05:17:03;1.20;99.90
8099;DHT22;4092;47.876;9.372;2023-04-03T05:19:30;1.30;99.90
8099;DHT22;4092;47.876;9.372;2023-04-03T05:21:57;1.20;99.90
8099;DHT22;4092;47.876;9.372;2023-04-03T05:24:24;1.20;99.90
8099;DHT22;4092;47.876;9.372;2023-04-03T05:26:51;1.30;99.90
8099;DHT22;4092;47.876;9.372;2023-04-03T05:29:18;1.30;99.90
8099;DHT22;4092;47.876;9.372;2023-04-03T05:31:45;1.30;99.90
8099;DHT22;4092;47.876;9.372;2023-04-03T05:34:14;1.30;99.90
8099;DHT22;4092;47.876;9.372;2023-04-03T05:36:41;1.30;99.90
8099;DHT22;4092;47.876;9.372;2023-04-03T05:39:08;1.20;99.90
8099;DHT22;4092;47.876;9.372;2023-04-03T05:41:35;1.20;99.90
8099;DHT22;4092;47.876;9.372;2023-04-03T05:44:02;1.20;99.90
8099;DHT22;4092;47.876;9.372;2023-04-03T05:46:29;1.20;99.90
8099;DHT22;4092;47.876;9.372;2023-04-03T05:48:56;1.20;99.90
8099;DHT22;4092;47.876;9.372;2023-04-03T05:51:28;1.20;99.90
8099;DHT22;4092;47.876;9.372;2023-04-03T05:54:03;1.30;99.90
8099;DHT22;4092;47.876;9.372;2023-04-03T05:56:31;1.30;99.90
8099;DHT22;4092;47.876;9.372;2023-04-03T05:58:58;1.30;99.90
8099;DHT22;4092;47.876;9.372;2023-04-03T06:01:25;1.30;99.90
8099;DHT22;4092;47.876;9.372;2023-04-03T06:03:52;1.30;99.90
8099;DHT22;4092;47.876;9.372;2023-04-03T06:06:20;1.30;99.90
8099;DHT22;4092;47.876;9.372;2023-04-03T06:08:49;1.40;99.90
8099;DHT22;4092;47.876;9.372;2023-04-03T06:11:16;1.30;99.90
8099;DHT22;4092;47.876;9.372;2023-04-03T06:13:43;1.40;99.90
8099;DHT22;4092;47.876;9.372;2023-04-03T06:16:12;1.40;99.90
8099;DHT22;4092;47.876;9.372;2023-04-03T06:18:43;1.40;99.90
8099;DHT22;4092;47.876;9.372;2023-04-03T06:21:10;1.40;99.90
8099;DHT22;4092;47.876;9.372;2023-04-03T06:23:37;1.40;99.90
8099;DHT22;4092;47.876;9.372;2023-04-03T06:26:05;1.40;99.90
8099;DHT22;4092;47.876;9.372;2023-04-03T06:28:32;1.50;99.90
8099;DHT22;4092;47.876;9.372;2023-04-03T06:30:59;1.50;99.90
8099;DHT22;4092;47.876;9.372;2023-04-03T06:33:26;1.50;99.90
8099;DHT22;4092;47.876;9.372;2023-04-03T06:35:58;1.50;99.90
8099;DHT22;4092;47.876;9.372;2023-04-03T06:38:25;1.50;99.90
8099;DHT22;4092;47.876;9.372;2023-04-03T06:40:52;1.50;99.90
8099;DHT22;4092;47.876;9.372;2023-04-03T06:43:21;1.50;99.90
8099;DHT22;4092;47.876;9.372;2023-04-03T06:45:48;1.60;99.90
8099;DHT22;4092;47.876;9.372;2023-04-03T06:48:17;1.60;99.90
8099;DHT22;4092;47.876;9.372;2023-04-03T06:50:44;1.60;99.90
8099;DHT22;4092;47.876;9.372;2023-04-03T06:53:11;1.60;99.90
8099;DHT22;4092;47.876;9.372;2023-04-03T06:55:39;1.60;99.90
8099;DHT22;4092;47.876;9.372;2023-04-03T06:58:07;1.60;99.90
8099;DHT22;4092;47.876;9.372;2023-04-03T07:00:36;1.60;99.90
8099;DHT22;4092;47.876;9.372;2023-04-03T07:03:03;1.60;99.90
8099;DHT22;4092;47.876;9.372;2023-04-03T07:05:30;1.60;99.90
8099;DHT22;4092;47.876;9.372;2023-04-03T07:07:57;1.70;99.90
8099;DHT22;4092;47.876;9.372;2023-04-03T07:10:24;1.80;99.90
8099;DHT22;4092;47.876;9.372;2023-04-03T07:12:51;1.80;99.90
8099;DHT22;4092;47.876;9.372;2023-04-03T07:15:18;1.80;99.90
8099;DHT22;4092;47.876;9.372;2023-04-03T07:17:46;1.80;99.90
8099;DHT22;4092;47.876;9.372;2023-04-03T07:20:14;1.80;99.90
8099;DHT22;4092;47.876;9.372;2023-04-03T07:22:41;1.90;99.90
8099;DHT22;4092;47.876;9.372;2023-04-03T07:25:08;1.90;99.90
8099;DHT22;4092;47.876;9.372;2023-04-03T07:27:36;1.90;99.90
8099;DHT22;4092;47.876;9.372;2023-04-03T07:30:03;2.00;99.90
8099;DHT22;4092;47.876;9.372;2023-04-03T07:32:32;2.00;99.90
8099;DHT22;4092;47.876;9.372;2023-04-03T07:35:00;2.10;99.90
8099;DHT22;4092;47.876;9.372;2023-04-03T07:37:27;2.20;99.90
8099;DHT22;4092;47.876;9.372;2023-04-03T07:39:54;2.20;99.90
8099;DHT22;4092;47.876;9.372;2023-04-03T07:42:22;2.20;99.90
8099;DHT22;4092;47.876;9.372;2023-04-03T07:44:49;2.20;99.90
8099;DHT22;4092;47.876;9.372;2023-04-03T07:47:16;2.20;99.90
8099;DHT22;4092;47.876;9.372;2023-04-03T07:49:44;2.10;99.90
8099;DHT22;4092;47.876;9.372;2023-04-03T07:52:12;2.10;99.90
8099;DHT22;4092;47.876;9.372;2023-04-03T07:54:40;2.10;99.90
8099;DHT22;4092;47.876;9.372;2023-04-03T07:57:07;2.20;99.90
8099;DHT22;4092;47.876;9.372;2023-04-03T07:59:34;2.20;99.90
8099;DHT22;4092;47.876;9.372;2023-04-03T08:02:01;2.30;99.90
8099;DHT22;4092;47.876;9.372;2023-04-03T08:04:30;2.30;99.90
8099;DHT22;4092;47.876;9.372;2023-04-03T08:06:57;2.30;99.90
8099;DHT22;4092;47.876;9.372;2023-04-03T08:09:25;2.40;99.90
8099;DHT22;4092;47.876;9.372;2023-04-03T08:11:52;2.40;99.90
8099;DHT22;4092;47.876;9.372;2023-04-03T08:14:20;2.40;99.90
8099;DHT22;4092;47.876;9.372;2023-04-03T08:16:48;2.30;99.90
8099;DHT22;4092;47.876;9.372;2023-04-03T08:19:15;2.40;99.90
8099;DHT22;4092;47.876;9.372;2023-04-03T08:21:43;2.50;99.90
8099;DHT22;4092;47.876;9.372;2023-04-03T08:24:12;2.50;99.90
8099;DHT22;4092;47.876;9.372;2023-04-03T08:26:43;2.60;99.90
8099;DHT22;4092;47.876;9.372;2023-04-03T08:29:10;2.60;99.90
8099;DHT22;4092;47.876;9.372;2023-04-03T08:31:37;2.60;99.90
8099;DHT22;4092;47.876;9.372;2023-04-03T08:34:04;2.70;99.90
8099;DHT22;4092;47.876;9.372;2023-04-03T08:36:32;2.70;99.90
8099;DHT22;4092;47.876;9.372;2023-04-03T08:38:59;2.80;99.90
8099;DHT22;4092;47.876;9.372;2023-04-03T08:41:29;2.90;99.90
8099;DHT22;4092;47.876;9.372;2023-04-03T08:44:04;2.90;99.90
8099;DHT22;4092;47.876;9.372;2023-04-03T08:46:54;2.90;99.90
8099;DHT22;4092;47.876;9.372;2023-04-03T08:49:26;2.90;99.90
8099;DHT22;4092;47.876;9.372;2023-04-03T08:51:56;3.00;99.90
8099;DHT22;4092;47.876;9.372;2023-04-03T08:54:28;3.10;99.90
8099;DHT22;4092;47.876;9.372;2023-04-03T08:56:58;3.00;99.90
8099;DHT22;4092;47.876;9.372;2023-04-03T08:59:29;3.00;99.90
8099;DHT22;4092;47.876;9.372;2023-04-03T09:01:59;3.00;99.90
8099;DHT22;4092;47.876;9.372;2023-04-03T09:04:31;3.10;99.90
8099;DHT22;4092;47.876;9.372;2023-04-03T09:07:03;3.10;99.90
8099;DHT22;4092;47.876;9.372;2023-04-03T09:09:35;2.90;99.90
8099;DHT22;4092;47.876;9.372;2023-04-03T09:12:14;3.00;99.90
8099;DHT22;4092;47.876;9.372;2023-04-03T09:14:49;3.00;99.90
8099;DHT22;4092;47.876;9.372;2023-04-03T09:17:26;3.00;99.90
8099;DHT22;4092;47.876;9.372;2023-04-03T09:20:06;3.00;99.90
8099;DHT22;4092;47.876;9.372;2023-04-03T09:22:39;2.90;99.90
8099;DHT22;4092;47.876;9.372;2023-04-03T09:25:12;3.10;99.90
8099;DHT22;4092;47.876;9.372;2023-04-03T09:27:41;3.00;99.90
8099;DHT22;4092;47.876;9.372;2023-04-03T09:30:13;3.10;99.90
8099;DHT22;4092;47.876;9.372;2023-04-03T09:32:41;3.10;99.90
8099;DHT22;4092;47.876;9.372;2023-04-03T09:35:19;3.20;99.90
8099;DHT22;4092;47.876;9.372;2023-04-03T09:37:48;3.10;99.90
8099;DHT22;4092;47.876;9.372;2023-04-03T09:40:32;3.10;99.90
8099;DHT22;4092;47.876;9.372;2023-04-03T09:43:04;3.10;99.90
8099;DHT22;4092;47.876;9.372;2023-04-03T09:45:48;3.20;99.90
8099;DHT22;4092;47.876;9.372;2023-04-03T09:48:17;3.30;99.90
8099;DHT22;4092;47.876;9.372;2023-04-03T09:51:08;3.30;99.90
8099;DHT22;4092;47.876;9.372;2023-04-03T09:53:43;3.40;99.90
8099;DHT22;4092;47.876;9.372;2023-04-03T09:56:20;3.50;99.90
8099;DHT22;4092;47.876;9.372;2023-04-03T09:58:49;3.50;99.90
8099;DHT22;4092;47.876;9.372;2023-04-03T10:01:27;3.40;99.90
8099;DHT22;4092;47.876;9.372;2023-04-03T10:04:09;3.30;99.90
8099;DHT22;4092;47.876;9.372;2023-04-03T10:06:40;3.30;99.90
8099;DHT22;4092;47.876;9.372;2023-04-03T10:09:18;3.30;99.90
8099;DHT22;4092;47.876;9.372;2023-04-03T10:12:00;3.30;99.90
8099;DHT22;4092;47.876;9.372;2023-04-03T10:14:31;3.30;99.90
8099;DHT22;4092;47.876;9.372;2023-04-03T10:17:09;3.30;99.90
8099;DHT22;4092;47.876;9.372;2023-04-03T10:19:42;3.40;99.90
8099;DHT22;4092;47.876;9.372;2023-04-03T10:22:18;3.50;99.90
8099;DHT22;4092;47.876;9.372;2023-04-03T10:24:56;3.50;99.90
8099;DHT22;4092;47.876;9.372;2023-04-03T10:27:35;3.60;99.90
8099;DHT22;4092;47.876;9.372;2023-04-03T10:30:09;3.60;99.90
8099;DHT22;4092;47.876;9.372;2023-04-03T10:32:58;3.50;99.90
8099;DHT22;4092;47.876;9.372;2023-04-03T10:35:34;3.50;99.90
8099;DHT22;4092;47.876;9.372;2023-04-03T10:38:10;3.40;99.90
8099;DHT22;4092;47.876;9.372;2023-04-03T10:40:50;3.40;99.90
8099;DHT22;4092;47.876;9.372;2023-04-03T10:43:23;3.60;99.90
8099;DHT22;4092;47.876;9.372;2023-04-03T10:45:57;3.80;99.90
8099;DHT22;4092;47.876;9.372;2023-04-03T10:48:40;4.20;99.90
8099;DHT22;4092;47.876;9.372;2023-04-03T10:51:25;4.60;99.90
8099;DHT22;4092;47.876;9.372;2023-04-03T10:53:57;4.60;99.90
8099;DHT22;4092;47.876;9.372;2023-04-03T10:56:31;4.60;99.90
8099;DHT22;4092;47.876;9.372;2023-04-03T10:59:07;4.50;99.90
8099;DHT22;4092;47.876;9.372;2023-04-03T11:01:38;4.50;99.90
8099;DHT22;4092;47.876;9.372;2023-04-03T11:04:10;4.50;99.90
8099;DHT22;4092;47.876;9.372;2023-04-03T11:06:42;4.50;99.90
8099;DHT22;4092;47.876;9.372;2023-04-03T11:09:19;4.40;99.90
8099;DHT22;4092;47.876;9.372;2023-04-03T11:11:49;4.40;99.90
8099;DHT22;4092;47.876;9.372;2023-04-03T11:14:26;4.60;99.90
8099;DHT22;4092;47.876;9.372;2023-04-03T11:17:02;4.70;99.90
8099;DHT22;4092;47.876;9.372;2023-04-03T11:19:35;4.60;99.90
8099;DHT22;4092;47.876;9.372;2023-04-03T11:22:12;4.60;99.90
8099;DHT22;4092;47.876;9.372;2023-04-03T11:24:42;4.60;99.90
8099;DHT22;4092;47.876;9.372;2023-04-03T11:27:16;4.60;99.90
8099;DHT22;4092;47.876;9.372;2023-04-03T11:29:45;4.80;99.90
8099;DHT22;4092;47.876;9.372;2023-04-03T11:32:41;4.80;99.90
8099;DHT22;4092;47.876;9.372;2023-04-03T11:35:12;4.80;99.90
8099;DHT22;4092;47.876;9.372;2023-04-03T11:37:42;4.70;99.90
8099;DHT22;4092;47.876;9.372;2023-04-03T11:40:21;4.70;99.90
8099;DHT22;4092;47.876;9.372;2023-04-03T11:42:52;4.60;99.90
8099;DHT22;4092;47.876;9.372;2023-04-03T11:45:33;4.50;99.90
8099;DHT22;4092;47.876;9.372;2023-04-03T11:57:46;4.60;99.90
8099;DHT22;4092;47.876;9.372;2023-04-03T12:07:02;5.10;99.90
8099;DHT22;4092;47.876;9.372;2023-04-03T12:12:28;5.20;99.90
8099;DHT22;4092;47.876;9.372;2023-04-03T12:15:21;5.50;99.90
8099;DHT22;4092;47.876;9.372;2023-04-03T12:17:49;5.50;99.90
8099;DHT22;4092;47.876;9.372;2023-04-03T12:20:54;5.70;99.90
8099;DHT22;4092;47.876;9.372;2023-04-03T12:23:27;5.70;99.90
8099;DHT22;4092;47.876;9.372;2023-04-03T12:26:01;5.60;99.90
8099;DHT22;4092;47.876;9.372;2023-04-03T12:28:35;5.70;99.90
8099;DHT22;4092;47.876;9.372;2023-04-03T12:31:05;5.70;99.90
8099;DHT22;4092;47.876;9.372;2023-04-03T12:33:44;5.70;99.90
8099;DHT22;4092;47.876;9.372;2023-04-03T12:36:21;5.70;99.90
8099;DHT22;4092;47.876;9.372;2023-04-03T12:39:03;5.60;99.90
8099;DHT22;4092;47.876;9.372;2023-04-03T12:41:37;5.60;99.90
8099;DHT22;4092;47.876;9.372;2023-04-03T12:44:23;5.50;99.90
8099;DHT22;4092;47.876;9.372;2023-04-03T12:46:54;5.40;99.90
8099;DHT22;4092;47.876;9.372;2023-04-03T12:49:35;5.30;99.90
8099;DHT22;4092;47.876;9.372;2023-04-03T12:52:04;5.30;99.90
8099;DHT22;4092;47.876;9.372;2023-04-03T12:54:35;5.00;99.90
8099;DHT22;4092;47.876;9.372;2023-04-03T12:57:10;4.80;99.90
8099;DHT22;4092;47.876;9.372;2023-04-03T12:59:37;4.60;99.90
8099;DHT22;4092;47.876;9.372;2023-04-03T13:02:23;4.60;99.90
8099;DHT22;4092;47.876;9.372;2023-04-03T13:04:53;4.80;99.90
8099;DHT22;4092;47.876;9.372;2023-04-03T13:07:22;4.90;99.90
8099;DHT22;4092;47.876;9.372;2023-04-03T13:10:03;4.90;99.90
8099;DHT22;4092;47.876;9.372;2023-04-03T13:12:31;4.90;99.90
8099;DHT22;4092;47.876;9.372;2023-04-03T13:15:00;4.90;99.90
8099;DHT22;4092;47.876;9.372;2023-04-03T13:17:31;4.90;99.90
8099;DHT22;4092;47.876;9.372;2023-04-03T13:20:11;4.80;99.90
8099;DHT22;4092;47.876;9.372;2023-04-03T13:22:40;4.70;99.90
8099;DHT22;4092;47.876;9.372;2023-04-03T13:25:13;4.70;99.90
8099;DHT22;4092;47.876;9.372;2023-04-03T13:27:42;4.70;99.90
8099;DHT22;4092;47.876;9.372;2023-04-03T13:30:24;4.60;99.90
8099;DHT22;4092;47.876;9.372;2023-04-03T13:32:54;4.70;99.90
8099;DHT22;4092;47.876;9.372;2023-04-03T13:35:26;4.60;99.90
8099;DHT22;4092;47.876;9.372;2023-04-03T13:37:54;4.70;99.90
8099;DHT22;4092;47.876;9.372;2023-04-03T13:40:22;4.80;99.90
8099;DHT22;4092;47.876;9.372;2023-04-03T13:42:59;4.90;99.90
8099;DHT22;4092;47.876;9.372;2023-04-03T13:45:29;5.00;99.90
8099;DHT22;4092;47.876;9.372;2023-04-03T13:48:10;5.00;99.90
8099;DHT22;4092;47.876;9.372;2023-04-03T13:50:55;5.10;99.90
8099;DHT22;4092;47.876;9.372;2023-04-03T13:53:24;5.00;99.90
8099;DHT22;4092;47.876;9.372;2023-04-03T13:56:04;5.00;99.90
8099;DHT22;4092;47.876;9.372;2023-04-03T13:58:33;4.90;99.90
8099;DHT22;4092;47.876;9.372;2023-04-03T14:01:07;4.90;99.90
8099;DHT22;4092;47.876;9.372;2023-04-03T14:03:42;4.80;99.90
8099;DHT22;4092;47.876;9.372;2023-04-03T14:06:11;4.70;99.90
8099;DHT22;4092;47.876;9.372;2023-04-03T14:08:39;4.70;99.90
8099;DHT22;4092;47.876;9.372;2023-04-03T14:11:11;4.60;99.90
8099;DHT22;4092;47.876;9.372;2023-04-03T14:13:39;4.70;99.90
8099;DHT22;4092;47.876;9.372;2023-04-03T14:16:06;4.80;99.90
8099;DHT22;4092;47.876;9.372;2023-04-03T14:18:33;5.00;99.90
8099;DHT22;4092;47.876;9.372;2023-04-03T14:21:03;5.20;99.90
8099;DHT22;4092;47.876;9.372;2023-04-03T14:23:31;5.30;99.90
8099;DHT22;4092;47.876;9.372;2023-04-03T14:25:58;5.40;99.90
8099;DHT22;4092;47.876;9.372;2023-04-03T14:28:26;5.60;99.90
8099;DHT22;4092;47.876;9.372;2023-04-03T14:30:53;5.70;99.90
8099;DHT22;4092;47.876;9.372;2023-04-03T14:33:21;5.80;99.90
8099;DHT22;4092;47.876;9.372;2023-04-03T14:35:48;5.70;99.90
8099;DHT22;4092;47.876;9.372;2023-04-03T14:38:24;5.60;99.90
8099;DHT22;4092;47.876;9.372;2023-04-03T14:40:52;5.50;99.90
8099;DHT22;4092;47.876;9.372;2023-04-03T14:43:20;5.40;99.90
8099;DHT22;4092;47.876;9.372;2023-04-03T14:45:48;5.30;99.90
8099;DHT22;4092;47.876;9.372;2023-04-03T14:48:19;5.20;99.90
8099;DHT22;4092;47.876;9.372;2023-04-03T14:50:48;5.10;99.90
8099;DHT22;4092;47.876;9.372;2023-04-03T14:53:16;5.10;99.90
8099;DHT22;4092;47.876;9.372;2023-04-03T14:55:49;4.90;99.90
8099;DHT22;4092;47.876;9.372;2023-04-03T14:58:19;4.90;99.90
8099;DHT22;4092;47.876;9.372;2023-04-03T15:00:47;4.80;99.90
8099;DHT22;4092;47.876;9.372;2023-04-03T15:03:16;4.80;99.90
8099;DHT22;4092;47.876;9.372;2023-04-03T15:05:44;4.80;99.90
8099;DHT22;4092;47.876;9.372;2023-04-03T15:08:18;4.80;99.90
8099;DHT22;4092;47.876;9.372;2023-04-03T15:10:47;4.80;99.90
8099;DHT22;4092;47.876;9.372;2023-04-03T15:13:15;4.90;99.90
8099;DHT22;4092;47.876;9.372;2023-04-03T15:15:43;4.90;99.90
8099;DHT22;4092;47.876;9.372;2023-04-03T15:18:15;4.90;99.90
8099;DHT22;4092;47.876;9.372;2023-04-03T15:20:43;4.90;99.90
8099;DHT22;4092;47.876;9.372;2023-04-03T15:23:12;5.00;99.90
8099;DHT22;4092;47.876;9.372;2023-04-03T15:25:41;5.20;99.90
8099;DHT22;4092;47.876;9.372;2023-04-03T15:28:17;5.10;99.90
8099;DHT22;4092;47.876;9.372;2023-04-03T15:30:44;5.10;99.90
8099;DHT22;4092;47.876;9.372;2023-04-03T15:33:12;5.10;99.90
8099;DHT22;4092;47.876;9.372;2023-04-03T15:35:38;5.20;99.90
8099;DHT22;4092;47.876;9.372;2023-04-03T15:38:06;5.30;99.90
8099;DHT22;4092;47.876;9.372;2023-04-03T15:40:33;5.30;99.90
8099;DHT22;4092;47.876;9.372;2023-04-03T15:43:00;5.20;99.90
8099;DHT22;4092;47.876;9.372;2023-04-03T15:45:30;5.10;99.90
8099;DHT22;4092;47.876;9.372;2023-04-03T15:47:57;4.90;99.90
8099;DHT22;4092;47.876;9.372;2023-04-03T15:50:24;4.80;99.90
8099;DHT22;4092;47.876;9.372;2023-04-03T15:52:52;4.70;99.90
8099;DHT22;4092;47.876;9.372;2023-04-03T15:55:21;4.60;99.90
8099;DHT22;4092;47.876;9.372;2023-04-03T15:57:48;4.40;99.90
8099;DHT22;4092;47.876;9.372;2023-04-03T16:00:16;4.40;99.90
8099;DHT22;4092;47.876;9.372;2023-04-03T16:02:45;4.30;99.90
8099;DHT22;4092;47.876;9.372;2023-04-03T16:05:15;4.20;99.90
8099;DHT22;4092;47.876;9.372;2023-04-03T16:07:43;4.20;99.90
8099;DHT22;4092;47.876;9.372;2023-04-03T16:10:12;4.10;99.90
8099;DHT22;4092;47.876;9.372;2023-04-03T16:12:40;4.10;99.90
8099;DHT22;4092;47.876;9.372;2023-04-03T16:15:08;4.20;99.90
8099;DHT22;4092;47.876;9.372;2023-04-03T16:17:36;4.20;99.90
8099;DHT22;4092;47.876;9.372;2023-04-03T16:20:06;4.10;99.90
8099;DHT22;4092;47.876;9.372;2023-04-03T16:22:34;4.10;99.90
8099;DHT22;4092;47.876;9.372;2023-04-03T16:25:01;4.10;99.90
8099;DHT22;4092;47.876;9.372;2023-04-03T16:27:28;4.10;99.90
8099;DHT22;4092;47.876;9.372;2023-04-03T16:29:56;4.00;99.90
8099;DHT22;4092;47.876;9.372;2023-04-03T16:32:25;4.00;99.90
8099;DHT22;4092;47.876;9.372;2023-04-03T16:34:53;4.00;99.90
8099;DHT22;4092;47.876;9.372;2023-04-03T16:37:21;4.00;99.90
8099;DHT22;4092;47.876;9.372;2023-04-03T16:39:48;4.00;99.90
8099;DHT22;4092;47.876;9.372;2023-04-03T16:42:15;4.00;99.90
8099;DHT22;4092;47.876;9.372;2023-04-03T16:44:42;4.00;99.90
8099;DHT22;4092;47.876;9.372;2023-04-03T16:47:10;3.90;99.90
8099;DHT22;4092;47.876;9.372;2023-04-03T16:49:39;3.80;99.90
8099;DHT22;4092;47.876;9.372;2023-04-03T16:52:06;3.90;99.90
8099;DHT22;4092;47.876;9.372;2023-04-03T16:54:34;3.90;99.90
8099;DHT22;4092;47.876;9.372;2023-04-03T16:57:01;3.80;99.90